createdAt,value
2019-03-24T00:02:09.894Z,6.26
2019-03-24T00:04:42.502Z,6.19
2019-03-24T00:07:15.047Z,6.20
2019-03-24T00:09:47.525Z,6.13
2019-03-24T00:12:20.061Z,6.11
2019-03-24T00:14:52.574Z,6.08
2019-03-24T00:17:26.935Z,6.03
2019-03-24T00:19:59.433Z,5.98
2019-03-24T00:22:31.940Z,6.06
2019-03-24T00:25:04.476Z,6.03
2019-03-24T00:27:36.996Z,5.97
2019-03-24T00:30:11.309Z,5.99
2019-03-24T00:32:43.815Z,5.94
2019-03-24T00:35:16.326Z,5.90
2019-03-24T00:37:49.223Z,5.83
2019-03-24T00:40:21.715Z,5.78
2019-03-24T00:42:54.380Z,5.84
2019-03-24T00:45:36.417Z,5.84
2019-03-24T00:48:02.445Z,5.77
2019-03-24T00:50:34.942Z,5.73
2019-03-24T00:53:07.594Z,5.70
2019-03-24T00:55:40.173Z,5.67
2019-03-24T00:58:12.801Z,5.64
2019-03-24T01:00:47.112Z,5.57
2019-03-24T01:03:19.750Z,5.54
2019-03-24T01:05:52.248Z,5.56
2019-03-24T01:08:24.867Z,5.50
2019-03-24T01:10:57.342Z,5.47
2019-03-24T01:13:29.870Z,5.47
2019-03-24T01:16:02.368Z,5.31
2019-03-24T01:18:34.939Z,5.22
2019-03-24T01:21:07.442Z,5.29
2019-03-24T01:23:39.954Z,5.21
2019-03-24T01:26:12.500Z,5.25
2019-03-24T01:28:44.995Z,5.23
2019-03-24T01:31:17.506Z,5.25
2019-03-24T01:33:50.017Z,5.27
2019-03-24T01:36:22.550Z,5.22
2019-03-24T01:38:55.065Z,5.16
2019-03-24T01:41:27.574Z,5.15
2019-03-24T01:44:00.127Z,5.17
2019-03-24T01:46:32.597Z,5.17
2019-03-24T01:49:05.220Z,5.14
2019-03-24T01:51:37.718Z,5.03
2019-03-24T01:54:10.222Z,5.11
2019-03-24T01:56:42.718Z,5.14
2019-03-24T01:59:15.310Z,5.04
2019-03-24T02:01:47.840Z,5.02
2019-03-24T02:04:20.293Z,5.01
2019-03-24T02:06:52.851Z,4.97
2019-03-24T02:09:25.354Z,4.97
2019-03-24T02:11:57.812Z,4.95
2019-03-24T02:14:30.310Z,4.96
2019-03-24T02:17:02.912Z,4.93
2019-03-24T02:19:35.428Z,4.85
2019-03-24T02:22:07.954Z,4.77
2019-03-24T02:24:40.465Z,4.74
2019-03-24T02:27:12.957Z,4.76
2019-03-24T02:29:45.482Z,4.76
2019-03-24T02:32:17.977Z,4.79
2019-03-24T02:34:50.464Z,4.76
2019-03-24T02:37:22.979Z,4.73
2019-03-24T02:39:55.476Z,4.70
2019-03-24T02:42:27.978Z,4.71
2019-03-24T02:45:00.503Z,4.58
2019-03-24T02:47:33.011Z,4.56
2019-03-24T02:50:06.858Z,4.58
2019-03-24T02:52:39.344Z,4.59
2019-03-24T02:55:11.840Z,4.56
2019-03-24T02:57:44.391Z,4.47
2019-03-24T03:00:17.206Z,4.53
2019-03-24T03:02:49.699Z,4.50
2019-03-24T03:05:22.209Z,4.49
2019-03-24T03:07:54.718Z,4.51
2019-03-24T03:10:27.214Z,4.46
2019-03-24T03:12:59.731Z,4.49
2019-03-24T03:15:32.185Z,4.46
2019-03-24T03:18:04.692Z,4.50
2019-03-24T03:20:37.155Z,4.45
2019-03-24T03:23:09.652Z,4.50
2019-03-24T03:25:42.125Z,4.46
2019-03-24T03:28:14.618Z,4.38
2019-03-24T03:30:47.104Z,4.31
2019-03-24T03:33:19.614Z,4.23
2019-03-24T03:35:52.085Z,4.17
2019-03-24T03:38:24.680Z,4.10
2019-03-24T03:40:57.232Z,4.11
2019-03-24T03:43:29.733Z,4.12
2019-03-24T03:46:02.250Z,4.10
2019-03-24T03:48:34.733Z,4.11
2019-03-24T03:51:07.210Z,4.17
2019-03-24T03:53:39.710Z,4.15
2019-03-24T03:56:12.202Z,4.15
2019-03-24T03:58:44.744Z,4.17
2019-03-24T04:01:17.221Z,4.16
2019-03-24T04:03:49.720Z,4.09
2019-03-24T04:06:22.214Z,4.13
2019-03-24T04:08:54.782Z,4.02
2019-03-24T04:11:27.299Z,3.92
2019-03-24T04:13:59.813Z,3.92
2019-03-24T04:16:32.301Z,3.89
2019-03-24T04:19:04.794Z,3.80
2019-03-24T04:21:37.290Z,3.87
2019-03-24T04:24:09.796Z,3.93
2019-03-24T04:26:42.285Z,3.96
2019-03-24T04:29:14.785Z,3.91
2019-03-24T04:31:47.265Z,3.90
2019-03-24T04:34:19.769Z,3.89
2019-03-24T04:36:52.248Z,3.86
2019-03-24T04:39:24.748Z,3.85
2019-03-24T04:41:57.247Z,3.84
2019-03-24T04:44:29.815Z,3.80
2019-03-24T04:47:02.378Z,3.76
2019-03-24T04:49:34.913Z,3.76
2019-03-24T04:52:07.398Z,3.71
2019-03-24T04:54:40.233Z,3.67
2019-03-24T04:57:12.713Z,3.63
2019-03-24T04:59:45.206Z,3.60
2019-03-24T05:02:17.811Z,3.60
2019-03-24T05:04:50.330Z,3.59
2019-03-24T05:07:23.209Z,3.59
2019-03-24T05:09:55.842Z,3.69
2019-03-24T05:12:28.330Z,3.56
2019-03-24T05:15:00.824Z,3.59
2019-03-24T05:17:33.354Z,3.61
2019-03-24T05:20:05.870Z,3.65
2019-03-24T05:22:38.412Z,3.61
2019-03-24T05:25:10.883Z,3.64
2019-03-24T05:27:43.385Z,3.53
2019-03-24T05:30:15.849Z,3.51
2019-03-24T05:32:48.348Z,3.35
2019-03-24T05:35:20.812Z,3.34
2019-03-24T05:37:53.300Z,3.39
2019-03-24T05:40:25.793Z,3.41
2019-03-24T05:42:58.315Z,3.47
2019-03-24T05:45:30.822Z,3.54
2019-03-24T05:48:03.326Z,3.61
2019-03-24T05:50:35.841Z,3.65
2019-03-24T05:53:08.349Z,3.69
2019-03-24T05:55:40.843Z,3.70
2019-03-24T05:58:13.361Z,3.75
2019-03-24T06:00:45.861Z,3.80
2019-03-24T06:03:18.363Z,3.87
2019-03-24T06:05:50.839Z,3.99
2019-03-24T06:08:23.340Z,4.05
2019-03-24T06:10:55.825Z,4.21
2019-03-24T06:13:28.332Z,4.35
2019-03-24T06:16:00.891Z,4.38
2019-03-24T06:18:33.403Z,4.34
2019-03-24T06:21:05.897Z,4.33
2019-03-24T06:23:38.484Z,4.44
2019-03-24T06:26:10.988Z,4.58
2019-03-24T06:28:43.524Z,4.82
2019-03-24T06:31:16.075Z,5.16
2019-03-24T06:33:48.568Z,5.41
2019-03-24T06:36:21.066Z,5.68
2019-03-24T06:38:53.614Z,5.84
2019-03-24T06:41:26.107Z,5.99
2019-03-24T06:43:58.664Z,6.19
2019-03-24T06:46:31.182Z,6.52
2019-03-24T06:49:03.698Z,7.05
2019-03-24T06:51:36.228Z,7.52
2019-03-24T06:54:08.715Z,7.75
2019-03-24T06:56:41.258Z,7.95
2019-03-24T06:59:13.811Z,8.24
2019-03-24T07:01:46.377Z,8.39
2019-03-24T07:04:19.877Z,8.73
2019-03-24T07:06:52.388Z,8.96
2019-03-24T07:09:24.905Z,9.27
2019-03-24T07:11:57.434Z,9.53
2019-03-24T07:14:29.941Z,9.68
2019-03-24T07:17:02.516Z,9.52
2019-03-24T07:19:35.064Z,9.62
2019-03-24T07:22:07.583Z,9.77
2019-03-24T07:24:40.100Z,9.74
2019-03-24T07:27:12.620Z,9.80
2019-03-24T07:29:45.120Z,9.90
2019-03-24T07:32:17.684Z,10.08
2019-03-24T07:34:50.169Z,10.15
2019-03-24T07:37:22.700Z,10.32
2019-03-24T07:39:55.237Z,10.26
2019-03-24T07:42:27.801Z,10.40
2019-03-24T07:45:00.364Z,10.55
2019-03-24T07:47:32.833Z,10.55
2019-03-24T07:50:06.395Z,10.71
2019-03-24T07:52:38.945Z,10.43
2019-03-24T07:55:11.470Z,10.66
2019-03-24T07:57:44.006Z,10.70
2019-03-24T08:00:59.027Z,10.93
2019-03-24T08:03:51.175Z,11.16
2019-03-24T08:07:04.206Z,11.49
2019-03-24T08:10:17.293Z,11.77
2019-03-24T08:12:49.940Z,12.06
2019-03-24T08:15:22.420Z,12.21
2019-03-24T08:18:14.138Z,12.57
2019-03-24T08:20:46.629Z,12.57
2019-03-24T08:23:19.172Z,12.66
2019-03-24T08:25:51.716Z,12.70
2019-03-24T08:28:24.259Z,12.93
2019-03-24T08:30:56.759Z,13.18
2019-03-24T08:33:29.320Z,13.12
2019-03-24T08:36:01.825Z,13.22
2019-03-24T08:38:34.361Z,13.34
2019-03-24T08:41:06.897Z,13.49
2019-03-24T08:43:39.448Z,13.58
2019-03-24T08:46:12.017Z,13.84
2019-03-24T08:48:44.683Z,14.01
2019-03-24T08:51:17.217Z,14.18
2019-03-24T08:53:49.757Z,14.41
2019-03-24T08:56:22.271Z,14.55
2019-03-24T08:58:54.791Z,14.60
2019-03-24T09:01:27.333Z,14.79
2019-03-24T09:03:59.882Z,14.91
2019-03-24T09:06:32.406Z,15.01
2019-03-24T09:09:06.427Z,15.13
2019-03-24T09:11:38.986Z,15.38
2019-03-24T09:14:11.499Z,15.40
2019-03-24T09:16:44.092Z,15.37
2019-03-24T09:19:16.659Z,15.42
2019-03-24T09:21:49.216Z,15.46
2019-03-24T09:24:21.778Z,15.60
2019-03-24T09:26:54.303Z,15.81
2019-03-24T09:29:26.869Z,15.89
2019-03-24T09:31:59.419Z,15.97
2019-03-24T09:34:31.973Z,16.04
2019-03-24T09:37:04.473Z,16.21
2019-03-24T09:39:36.998Z,16.28
2019-03-24T09:42:50.077Z,16.28
2019-03-24T09:45:22.627Z,16.35
2019-03-24T09:47:55.207Z,16.40
2019-03-24T09:50:27.735Z,16.46
2019-03-24T09:53:00.345Z,16.53
2019-03-24T09:55:32.855Z,16.66
2019-03-24T09:58:05.412Z,16.74
2019-03-24T10:00:37.926Z,16.76
2019-03-24T10:03:10.489Z,16.68
2019-03-24T10:05:43.012Z,16.75
2019-03-24T10:08:15.599Z,16.61
2019-03-24T10:10:48.166Z,16.72
2019-03-24T10:13:20.745Z,16.83
2019-03-24T10:15:53.252Z,16.89
2019-03-24T10:18:25.965Z,17.07
2019-03-24T10:20:58.499Z,17.10
2019-03-24T10:23:31.040Z,17.09
2019-03-24T10:26:03.575Z,17.25
2019-03-24T10:28:36.119Z,17.33
2019-03-24T10:31:08.632Z,17.09
2019-03-24T10:33:41.185Z,17.09
2019-03-24T10:36:13.681Z,17.17
2019-03-24T10:38:46.204Z,17.02
2019-03-24T10:41:18.710Z,17.04
2019-03-24T10:43:51.258Z,17.06
2019-03-24T10:46:23.811Z,17.16
2019-03-24T10:48:56.377Z,17.15
2019-03-24T10:51:28.851Z,17.15
2019-03-24T10:54:01.385Z,17.27
2019-03-24T10:56:33.874Z,17.38
2019-03-24T10:59:06.432Z,17.41
2019-03-24T11:01:38.994Z,17.28
2019-03-24T11:04:11.512Z,17.15
2019-03-24T11:06:44.026Z,17.19
2019-03-24T11:09:16.564Z,17.34
2019-03-24T11:11:49.109Z,17.47
2019-03-24T11:14:21.640Z,17.58
2019-03-24T11:16:54.168Z,17.55
2019-03-24T11:19:35.241Z,17.49
2019-03-24T11:22:01.190Z,17.56
2019-03-24T11:24:33.752Z,17.59
2019-03-24T11:27:06.284Z,17.68
2019-03-24T11:29:38.837Z,17.76
2019-03-24T11:32:11.325Z,17.64
2019-03-24T11:34:43.844Z,17.75
2019-03-24T11:37:16.369Z,17.88
2019-03-24T11:39:48.926Z,17.96
2019-03-24T11:42:21.449Z,18.06
2019-03-24T11:44:53.989Z,18.18
2019-03-24T11:47:27.089Z,18.07
2019-03-24T11:50:00.941Z,18.03
2019-03-24T11:52:33.501Z,18.01
2019-03-24T11:55:47.204Z,18.09
2019-03-24T11:58:19.720Z,18.22
2019-03-24T12:00:52.275Z,18.34
2019-03-24T12:03:25.514Z,18.24
2019-03-24T12:05:59.274Z,17.99
2019-03-24T12:08:31.800Z,18.16
2019-03-24T12:11:04.487Z,18.18
2019-03-24T12:13:37.013Z,18.26
2019-03-24T12:16:09.576Z,18.14
2019-03-24T12:18:42.088Z,18.19
2019-03-24T12:21:14.632Z,18.16
2019-03-24T12:23:47.157Z,18.21
2019-03-24T12:26:19.709Z,18.37
2019-03-24T12:28:52.229Z,18.42
2019-03-24T12:31:24.809Z,18.43
2019-03-24T12:33:57.314Z,18.34
2019-03-24T12:36:29.942Z,18.24
2019-03-24T12:41:56.582Z,18.30
2019-03-24T12:44:29.123Z,18.27
2019-03-24T12:47:01.725Z,18.41
2019-03-24T12:49:34.262Z,18.23
2019-03-24T12:52:06.824Z,18.20
2019-03-24T12:54:39.385Z,18.05
2019-03-24T12:57:11.925Z,18.30
2019-03-24T12:59:44.466Z,18.20
2019-03-24T13:02:17.087Z,18.03
2019-03-24T13:07:28.191Z,17.92
2019-03-24T13:10:00.701Z,17.88
2019-03-24T13:12:33.234Z,17.89
2019-03-24T13:15:06.412Z,18.03
2019-03-24T13:17:39.031Z,18.09
2019-03-24T13:20:20.209Z,18.02
2019-03-24T13:22:46.050Z,17.95
2019-03-24T13:25:18.606Z,17.98
2019-03-24T13:27:51.104Z,18.13
2019-03-24T13:30:23.789Z,18.00
2019-03-24T13:32:56.324Z,17.95
2019-03-24T13:35:28.876Z,18.00
2019-03-24T13:38:01.433Z,17.94
2019-03-24T13:40:33.965Z,17.88
2019-03-24T13:43:06.493Z,17.92
2019-03-24T13:45:39.111Z,17.97
2019-03-24T13:48:11.624Z,17.96
2019-03-24T13:50:44.210Z,17.66
2019-03-24T13:53:16.695Z,17.69
2019-03-24T13:55:49.240Z,17.82
2019-03-24T13:58:21.765Z,17.81
2019-03-24T14:00:54.321Z,17.77
2019-03-24T14:03:26.954Z,17.64
2019-03-24T14:05:59.469Z,17.69
2019-03-24T14:08:32.030Z,17.63
2019-03-24T14:11:04.635Z,17.76
2019-03-24T14:13:37.272Z,17.81
2019-03-24T14:16:09.957Z,17.84
2019-03-24T14:18:42.472Z,17.76
2019-03-24T14:21:15.033Z,17.72
2019-03-24T14:23:47.538Z,17.77
2019-03-24T14:26:20.118Z,17.62
2019-03-24T14:28:52.628Z,17.61
2019-03-24T14:31:25.168Z,17.62
2019-03-24T14:33:57.702Z,17.61
2019-03-24T14:36:30.254Z,17.56
2019-03-24T14:39:03.590Z,17.46
2019-03-24T14:41:36.159Z,17.32
2019-03-24T14:44:08.665Z,17.40
2019-03-24T14:46:41.224Z,17.47
2019-03-24T14:49:13.820Z,17.39
2019-03-24T14:51:46.383Z,17.37
2019-03-24T14:54:18.929Z,17.32
2019-03-24T14:56:51.450Z,17.31
2019-03-24T14:59:24.005Z,17.32
2019-03-24T15:01:56.541Z,17.31
2019-03-24T15:04:29.118Z,17.18
2019-03-24T15:07:01.669Z,17.15
2019-03-24T15:09:34.228Z,16.86
2019-03-24T15:12:06.801Z,16.83
2019-03-24T15:14:39.358Z,16.67
2019-03-24T15:17:11.953Z,16.81
2019-03-24T15:19:44.475Z,16.83
2019-03-24T15:22:17.095Z,16.83
2019-03-24T15:24:49.593Z,16.76
2019-03-24T15:27:22.177Z,16.68
2019-03-24T15:29:54.789Z,16.62
2019-03-24T15:32:27.374Z,16.62
2019-03-24T15:34:59.890Z,16.64
2019-03-24T15:37:32.473Z,16.41
2019-03-24T15:40:05.269Z,16.45
2019-03-24T15:42:37.804Z,16.61
2019-03-24T15:45:10.367Z,16.56
2019-03-24T15:47:42.974Z,16.47
2019-03-24T15:50:15.637Z,16.48
2019-03-24T15:52:48.167Z,16.51
2019-03-24T15:55:20.716Z,16.40
2019-03-24T15:57:53.257Z,16.42
2019-03-24T16:00:45.692Z,16.46
2019-03-24T16:03:18.277Z,16.44
2019-03-24T16:05:50.808Z,16.32
2019-03-24T16:08:23.403Z,16.31
2019-03-24T16:10:55.922Z,16.26
2019-03-24T16:13:28.515Z,16.14
2019-03-24T16:16:01.080Z,16.20
2019-03-24T16:18:33.644Z,16.13
2019-03-24T16:21:06.229Z,16.11
2019-03-24T16:23:38.768Z,16.09
2019-03-24T16:26:11.332Z,15.93
2019-03-24T16:28:43.896Z,15.73
2019-03-24T16:31:16.501Z,15.66
2019-03-24T16:33:49.052Z,15.60
2019-03-24T16:36:21.610Z,15.64
2019-03-24T16:39:03.174Z,15.57
2019-03-24T16:41:28.656Z,15.47
2019-03-24T16:44:01.193Z,15.51
2019-03-24T16:46:34.035Z,15.47
2019-03-24T16:49:06.592Z,15.35
2019-03-24T16:51:41.573Z,15.30
2019-03-24T16:54:13.624Z,15.27
2019-03-24T16:56:46.214Z,15.27
2019-03-24T16:59:18.764Z,15.35
2019-03-24T17:01:51.346Z,15.30
2019-03-24T17:04:23.940Z,15.26
2019-03-24T17:06:56.477Z,15.22
2019-03-24T17:09:29.027Z,15.23
2019-03-24T17:12:01.630Z,15.19
2019-03-24T17:14:34.148Z,15.17
2019-03-24T17:17:06.803Z,15.16
2019-03-24T17:19:39.343Z,15.13
2019-03-24T17:22:11.913Z,15.07
2019-03-24T17:24:44.465Z,15.01
2019-03-24T17:27:17.018Z,14.87
2019-03-24T17:29:49.593Z,14.73
2019-03-24T17:32:22.230Z,14.65
2019-03-24T17:34:54.834Z,14.65
2019-03-24T17:37:29.903Z,14.62
2019-03-24T17:40:01.874Z,14.51
2019-03-24T17:42:34.423Z,14.39
2019-03-24T17:45:08.277Z,14.32
2019-03-24T17:47:40.877Z,14.19
2019-03-24T17:50:13.858Z,14.02
2019-03-24T17:52:46.440Z,13.97
2019-03-24T17:55:27.230Z,13.90
2019-03-24T17:57:53.414Z,13.81
2019-03-24T18:00:47.565Z,13.70
2019-03-24T18:03:20.135Z,13.55
2019-03-24T18:05:52.666Z,13.48
2019-03-24T18:08:25.248Z,13.41
2019-03-24T18:10:57.815Z,13.33
2019-03-24T18:13:30.411Z,13.22
2019-03-24T18:16:03.005Z,13.15
2019-03-24T18:18:35.591Z,13.07
2019-03-24T18:21:08.112Z,13.01
2019-03-24T18:23:40.760Z,12.98
2019-03-24T18:26:13.310Z,12.96
2019-03-24T18:28:45.917Z,12.94
2019-03-24T18:31:18.435Z,12.89
2019-03-24T18:33:51.027Z,12.85
2019-03-24T18:36:23.555Z,12.79
2019-03-24T18:38:57.364Z,12.70
2019-03-24T18:41:29.934Z,12.62
2019-03-24T18:44:02.580Z,12.51
2019-03-24T18:46:35.202Z,12.46
2019-03-24T18:49:07.800Z,12.35
2019-03-24T18:51:40.371Z,12.30
2019-03-24T18:54:13.033Z,12.29
2019-03-24T18:56:45.583Z,12.23
2019-03-24T18:59:18.202Z,12.20
2019-03-24T19:01:50.728Z,12.20
2019-03-24T19:04:23.296Z,12.10
2019-03-24T19:06:55.873Z,12.13
2019-03-24T19:09:28.549Z,12.15
2019-03-24T19:12:01.202Z,12.09
2019-03-24T19:14:33.845Z,12.15
2019-03-24T19:17:06.448Z,12.19
2019-03-24T19:19:39.030Z,12.24
2019-03-24T19:22:11.608Z,12.26
2019-03-24T19:24:44.220Z,12.36
2019-03-24T19:27:16.865Z,12.30
2019-03-24T19:29:49.505Z,12.28
2019-03-24T19:32:22.108Z,12.17
2019-03-24T19:34:54.743Z,12.14
2019-03-24T19:37:27.305Z,12.04
2019-03-24T19:40:00.062Z,12.00
2019-03-24T19:42:32.638Z,11.96
2019-03-24T19:45:05.485Z,11.93
2019-03-24T19:47:38.094Z,11.89
2019-03-24T19:50:10.723Z,11.81
2019-03-24T19:52:44.889Z,11.75
2019-03-24T19:55:17.618Z,11.74
2019-03-24T19:57:51.896Z,11.57
2019-03-24T20:00:24.663Z,11.47
2019-03-24T20:02:57.273Z,11.43
2019-03-24T20:05:29.838Z,11.33
2019-03-24T20:08:02.612Z,11.30
2019-03-24T20:10:35.262Z,11.20
2019-03-24T20:13:07.796Z,11.09
2019-03-24T20:15:40.380Z,11.02
2019-03-24T20:18:12.946Z,10.92
2019-03-24T20:20:45.494Z,10.90
2019-03-24T20:23:18.066Z,10.83
2019-03-24T20:25:50.622Z,10.74
2019-03-24T20:28:23.229Z,10.67
2019-03-24T20:30:55.784Z,10.67
2019-03-24T20:33:28.370Z,10.57
2019-03-24T20:36:00.936Z,10.57
2019-03-24T20:38:33.540Z,10.50
2019-03-24T20:41:06.101Z,10.46
2019-03-24T20:43:38.723Z,10.40
2019-03-24T20:46:11.321Z,10.34
2019-03-24T20:48:43.891Z,10.31
2019-03-24T20:51:16.446Z,10.27
2019-03-24T20:53:49.103Z,10.29
2019-03-24T20:56:21.618Z,10.39
2019-03-24T20:58:56.579Z,10.31
2019-03-24T21:01:29.192Z,10.17
2019-03-24T21:04:01.842Z,10.06
2019-03-24T21:06:34.373Z,10.06
2019-03-24T21:09:07.369Z,10.08
2019-03-24T21:11:39.932Z,10.08
2019-03-24T21:14:12.515Z,10.01
2019-03-24T21:16:45.107Z,10.05
2019-03-24T21:19:17.668Z,10.01
2019-03-24T21:21:50.242Z,10.09
2019-03-24T21:24:22.805Z,9.99
2019-03-24T21:26:55.410Z,10.08
2019-03-24T21:29:27.958Z,10.02
2019-03-24T21:32:00.485Z,9.92
2019-03-24T21:34:33.070Z,9.98
2019-03-24T21:37:05.576Z,9.97
2019-03-24T21:39:38.116Z,10.02
2019-03-24T21:42:10.656Z,10.12
2019-03-24T21:44:43.237Z,10.13
2019-03-24T21:47:15.836Z,10.17
2019-03-24T21:49:48.373Z,10.16
2019-03-24T21:52:20.976Z,10.22
2019-03-24T21:54:53.505Z,10.20
2019-03-24T21:57:26.077Z,10.23
2019-03-24T21:59:58.636Z,10.22
2019-03-24T22:02:31.181Z,10.22
2019-03-24T22:05:03.853Z,10.20
2019-03-24T22:07:36.430Z,10.21
2019-03-24T22:10:09.088Z,10.18
2019-03-24T22:12:41.676Z,10.24
2019-03-24T22:15:16.715Z,10.34
2019-03-24T22:17:49.314Z,10.35
2019-03-24T22:20:21.861Z,10.25
2019-03-24T22:22:54.396Z,10.22
2019-03-24T22:25:26.959Z,10.13
2019-03-24T22:27:59.573Z,10.05
2019-03-24T22:30:32.097Z,10.07
2019-03-24T22:33:04.644Z,10.14
2019-03-24T22:35:37.170Z,10.12
2019-03-24T22:38:09.736Z,10.16
2019-03-24T22:40:42.262Z,10.19
2019-03-24T22:43:14.838Z,10.20
2019-03-24T22:45:47.335Z,10.18
2019-03-24T22:48:19.882Z,10.21
2019-03-24T22:50:52.406Z,10.21
2019-03-24T22:53:24.934Z,10.19
2019-03-24T22:55:57.475Z,10.14
2019-03-24T22:58:30.048Z,10.13
2019-03-24T23:01:02.685Z,10.12
2019-03-24T23:03:35.210Z,10.11
2019-03-24T23:06:07.722Z,10.04
2019-03-24T23:08:40.263Z,10.03
2019-03-24T23:11:12.782Z,10.02
2019-03-24T23:13:45.351Z,10.05
2019-03-24T23:16:17.840Z,10.09
2019-03-24T23:18:50.407Z,10.18
2019-03-24T23:21:22.912Z,10.16
2019-03-24T23:23:55.503Z,10.24
2019-03-24T23:26:28.039Z,10.20
2019-03-24T23:29:00.597Z,10.19
2019-03-24T23:31:34.246Z,10.16
2019-03-24T23:34:06.845Z,10.16
2019-03-24T23:36:39.346Z,10.18
2019-03-24T23:39:11.870Z,10.19
2019-03-24T23:41:44.405Z,10.16
2019-03-24T23:44:16.958Z,10.15
2019-03-24T23:46:49.452Z,10.19
2019-03-24T23:49:21.973Z,10.21
2019-03-24T23:51:54.512Z,10.21
2019-03-24T23:54:27.608Z,10.29
2019-03-24T23:57:00.248Z,10.33
2019-03-24T23:59:32.776Z,10.39
